sensor_id;sensor_type;location;lat;lon;timestamp;P1;durP1;ratioP1;P2;durP2;ratioP2
18378;SDS011;27025;51.986;5.984;2022-10-16T00:01:41;7.10;;;3.50;;
18378;SDS011;27025;51.986;5.984;2022-10-16T00:04:07;5.67;;;3.70;;
18378;SDS011;27025;51.986;5.984;2022-10-16T00:06:33;10.03;;;4.27;;
18378;SDS011;27025;51.986;5.984;2022-10-16T00:08:59;7.23;;;4.20;;
18378;SDS011;27025;51.986;5.984;2022-10-16T00:11:26;9.60;;;4.20;;
18378;SDS011;27025;51.986;5.984;2022-10-16T00:13:55;7.47;;;4.07;;
18378;SDS011;27025;51.986;5.984;2022-10-16T00:16:21;5.90;;;3.77;;
18378;SDS011;27025;51.986;5.984;2022-10-16T00:18:47;7.10;;;3.20;;
18378;SDS011;27025;51.986;5.984;2022-10-16T00:21:15;7.73;;;3.73;;
18378;SDS011;27025;51.986;5.984;2022-10-16T00:23:42;7.17;;;3.40;;
18378;SDS011;27025;51.986;5.984;2022-10-16T00:26:10;6.60;;;3.63;;
18378;SDS011;27025;51.986;5.984;2022-10-16T00:28:36;4.63;;;3.93;;
18378;SDS011;27025;51.986;5.984;2022-10-16T00:31:06;8.73;;;4.00;;
18378;SDS011;27025;51.986;5.984;2022-10-16T00:33:33;6.17;;;3.90;;
18378;SDS011;27025;51.986;5.984;2022-10-16T00:35:59;10.40;;;4.00;;
18378;SDS011;27025;51.986;5.984;2022-10-16T00:38:25;6.93;;;4.13;;
18378;SDS011;27025;51.986;5.984;2022-10-16T00:40:51;8.43;;;4.50;;
18378;SDS011;27025;51.986;5.984;2022-10-16T00:46:04;9.13;;;4.30;;
18378;SDS011;27025;51.986;5.984;2022-10-16T00:48:31;8.33;;;4.43;;
18378;SDS011;27025;51.986;5.984;2022-10-16T00:50:57;11.57;;;4.70;;
18378;SDS011;27025;51.986;5.984;2022-10-16T00:53:23;8.80;;;4.83;;
18378;SDS011;27025;51.986;5.984;2022-10-16T00:55:51;11.53;;;5.20;;
18378;SDS011;27025;51.986;5.984;2022-10-16T00:58:17;9.87;;;4.67;;
18378;SDS011;27025;51.986;5.984;2022-10-16T01:00:43;6.53;;;4.50;;
18378;SDS011;27025;51.986;5.984;2022-10-16T01:03:25;10.10;;;5.00;;
18378;SDS011;27025;51.986;5.984;2022-10-16T01:13:54;7.57;;;5.20;;
18378;SDS011;27025;51.986;5.984;2022-10-16T01:16:24;10.23;;;5.20;;
18378;SDS011;27025;51.986;5.984;2022-10-16T01:21:29;7.07;;;5.00;;
18378;SDS011;27025;51.986;5.984;2022-10-16T01:32:17;8.43;;;5.33;;
18378;SDS011;27025;51.986;5.984;2022-10-16T01:34:52;8.57;;;5.47;;
18378;SDS011;27025;51.986;5.984;2022-10-16T01:37:22;8.43;;;5.17;;
18378;SDS011;27025;51.986;5.984;2022-10-16T01:39:48;8.83;;;5.60;;
18378;SDS011;27025;51.986;5.984;2022-10-16T01:42:17;9.77;;;5.37;;
18378;SDS011;27025;51.986;5.984;2022-10-16T01:44:44;7.43;;;5.60;;
18378;SDS011;27025;51.986;5.984;2022-10-16T01:47:11;7.73;;;5.70;;
18378;SDS011;27025;51.986;5.984;2022-10-16T01:49:38;6.50;;;5.90;;
18378;SDS011;27025;51.986;5.984;2022-10-16T01:52:06;9.57;;;5.80;;
18378;SDS011;27025;51.986;5.984;2022-10-16T01:54:34;10.40;;;5.90;;
18378;SDS011;27025;51.986;5.984;2022-10-16T01:57:03;6.43;;;5.50;;
18378;SDS011;27025;51.986;5.984;2022-10-16T01:59:31;7.50;;;5.40;;
18378;SDS011;27025;51.986;5.984;2022-10-16T02:02:01;6.10;;;4.93;;
18378;SDS011;27025;51.986;5.984;2022-10-16T02:04:45;6.33;;;4.47;;
18378;SDS011;27025;51.986;5.984;2022-10-16T02:07:12;8.17;;;5.17;;
18378;SDS011;27025;51.986;5.984;2022-10-16T02:09:38;6.03;;;4.53;;
18378;SDS011;27025;51.986;5.984;2022-10-16T02:12:15;7.50;;;5.10;;
18378;SDS011;27025;51.986;5.984;2022-10-16T02:14:44;6.70;;;4.80;;
18378;SDS011;27025;51.986;5.984;2022-10-16T02:17:15;7.53;;;4.33;;
18378;SDS011;27025;51.986;5.984;2022-10-16T02:19:41;9.33;;;4.50;;
18378;SDS011;27025;51.986;5.984;2022-10-16T02:22:08;5.20;;;4.13;;
18378;SDS011;27025;51.986;5.984;2022-10-16T02:29:53;4.87;;;3.93;;
18378;SDS011;27025;51.986;5.984;2022-10-16T02:32:24;4.73;;;3.97;;
18378;SDS011;27025;51.986;5.984;2022-10-16T02:34:50;6.63;;;4.33;;
18378;SDS011;27025;51.986;5.984;2022-10-16T02:37:17;3.73;;;3.43;;
18378;SDS011;27025;51.986;5.984;2022-10-16T02:39:43;5.70;;;3.97;;
18378;SDS011;27025;51.986;5.984;2022-10-16T02:42:13;4.10;;;3.70;;
18378;SDS011;27025;51.986;5.984;2022-10-16T02:44:40;4.53;;;3.50;;
18378;SDS011;27025;51.986;5.984;2022-10-16T02:47:06;6.67;;;3.70;;
18378;SDS011;27025;51.986;5.984;2022-10-16T02:49:32;6.37;;;3.67;;
18378;SDS011;27025;51.986;5.984;2022-10-16T02:51:58;5.73;;;3.30;;
18378;SDS011;27025;51.986;5.984;2022-10-16T02:54:24;4.53;;;3.60;;
18378;SDS011;27025;51.986;5.984;2022-10-16T02:56:50;5.37;;;3.43;;
18378;SDS011;27025;51.986;5.984;2022-10-16T02:59:16;6.03;;;3.20;;
18378;SDS011;27025;51.986;5.984;2022-10-16T03:01:42;5.47;;;3.33;;
18378;SDS011;27025;51.986;5.984;2022-10-16T03:04:08;4.47;;;3.07;;
18378;SDS011;27025;51.986;5.984;2022-10-16T03:06:34;7.03;;;3.67;;
18378;SDS011;27025;51.986;5.984;2022-10-16T03:09:00;5.47;;;3.37;;
18378;SDS011;27025;51.986;5.984;2022-10-16T03:11:26;4.77;;;3.80;;
18378;SDS011;27025;51.986;5.984;2022-10-16T03:13:53;5.70;;;3.27;;
18378;SDS011;27025;51.986;5.984;2022-10-16T03:16:19;4.77;;;3.50;;
18378;SDS011;27025;51.986;5.984;2022-10-16T03:18:47;4.90;;;3.63;;
18378;SDS011;27025;51.986;5.984;2022-10-16T03:21:14;3.87;;;3.37;;
18378;SDS011;27025;51.986;5.984;2022-10-16T03:23:40;4.40;;;3.27;;
18378;SDS011;27025;51.986;5.984;2022-10-16T03:26:06;5.27;;;3.27;;
18378;SDS011;27025;51.986;5.984;2022-10-16T03:28:32;5.17;;;3.60;;
18378;SDS011;27025;51.986;5.984;2022-10-16T03:30:58;6.83;;;3.60;;
18378;SDS011;27025;51.986;5.984;2022-10-16T03:33:24;5.43;;;2.90;;
18378;SDS011;27025;51.986;5.984;2022-10-16T03:35:51;4.37;;;3.20;;
18378;SDS011;27025;51.986;5.984;2022-10-16T03:38:18;3.67;;;2.97;;
18378;SDS011;27025;51.986;5.984;2022-10-16T03:40:44;3.83;;;2.80;;
18378;SDS011;27025;51.986;5.984;2022-10-16T03:43:10;5.53;;;2.90;;
18378;SDS011;27025;51.986;5.984;2022-10-16T03:45:36;3.70;;;2.90;;
18378;SDS011;27025;51.986;5.984;2022-10-16T03:48:02;6.93;;;3.10;;
18378;SDS011;27025;51.986;5.984;2022-10-16T03:50:28;3.13;;;2.80;;
18378;SDS011;27025;51.986;5.984;2022-10-16T03:52:54;6.17;;;2.77;;
18378;SDS011;27025;51.986;5.984;2022-10-16T03:55:20;3.63;;;3.10;;
18378;SDS011;27025;51.986;5.984;2022-10-16T03:57:46;3.73;;;2.70;;
18378;SDS011;27025;51.986;5.984;2022-10-16T04:00:12;3.40;;;2.60;;
18378;SDS011;27025;51.986;5.984;2022-10-16T04:02:38;4.37;;;3.20;;
18378;SDS011;27025;51.986;5.984;2022-10-16T04:05:04;4.37;;;3.20;;
18378;SDS011;27025;51.986;5.984;2022-10-16T04:07:30;3.30;;;2.90;;
18378;SDS011;27025;51.986;5.984;2022-10-16T04:09:56;3.97;;;2.80;;
18378;SDS011;27025;51.986;5.984;2022-10-16T04:12:24;3.63;;;2.80;;
18378;SDS011;27025;51.986;5.984;2022-10-16T04:14:50;4.57;;;3.00;;
18378;SDS011;27025;51.986;5.984;2022-10-16T04:17:16;6.13;;;3.23;;
18378;SDS011;27025;51.986;5.984;2022-10-16T04:19:42;5.20;;;2.83;;
18378;SDS011;27025;51.986;5.984;2022-10-16T04:22:08;3.77;;;2.70;;
18378;SDS011;27025;51.986;5.984;2022-10-16T04:24:34;4.40;;;2.50;;
18378;SDS011;27025;51.986;5.984;2022-10-16T04:27:00;3.87;;;2.53;;
18378;SDS011;27025;51.986;5.984;2022-10-16T04:29:26;5.63;;;2.60;;
18378;SDS011;27025;51.986;5.984;2022-10-16T04:31:52;4.00;;;2.80;;
18378;SDS011;27025;51.986;5.984;2022-10-16T04:34:18;4.13;;;2.80;;
18378;SDS011;27025;51.986;5.984;2022-10-16T04:36:46;4.60;;;2.80;;
18378;SDS011;27025;51.986;5.984;2022-10-16T04:39:12;4.93;;;2.93;;
18378;SDS011;27025;51.986;5.984;2022-10-16T04:41:38;4.60;;;2.60;;
18378;SDS011;27025;51.986;5.984;2022-10-16T04:44:04;5.57;;;2.90;;
18378;SDS011;27025;51.986;5.984;2022-10-16T04:46:30;3.80;;;2.80;;
18378;SDS011;27025;51.986;5.984;2022-10-16T04:48:56;4.30;;;2.80;;
18378;SDS011;27025;51.986;5.984;2022-10-16T04:51:22;3.23;;;2.93;;
18378;SDS011;27025;51.986;5.984;2022-10-16T04:53:49;3.27;;;2.70;;
18378;SDS011;27025;51.986;5.984;2022-10-16T04:56:15;5.27;;;3.17;;
18378;SDS011;27025;51.986;5.984;2022-10-16T04:58:41;3.73;;;3.10;;
18378;SDS011;27025;51.986;5.984;2022-10-16T05:01:07;6.23;;;3.10;;
18378;SDS011;27025;51.986;5.984;2022-10-16T05:03:33;5.00;;;3.00;;
18378;SDS011;27025;51.986;5.984;2022-10-16T05:05:59;4.13;;;2.90;;
18378;SDS011;27025;51.986;5.984;2022-10-16T05:08:25;4.13;;;3.03;;
18378;SDS011;27025;51.986;5.984;2022-10-16T05:10:51;4.20;;;2.90;;
18378;SDS011;27025;51.986;5.984;2022-10-16T05:13:17;3.80;;;2.57;;
18378;SDS011;27025;51.986;5.984;2022-10-16T05:15:46;4.17;;;2.80;;
18378;SDS011;27025;51.986;5.984;2022-10-16T05:18:13;4.73;;;2.90;;
18378;SDS011;27025;51.986;5.984;2022-10-16T05:20:39;8.07;;;2.87;;
18378;SDS011;27025;51.986;5.984;2022-10-16T05:23:05;3.60;;;3.10;;
18378;SDS011;27025;51.986;5.984;2022-10-16T05:25:31;4.30;;;2.83;;
18378;SDS011;27025;51.986;5.984;2022-10-16T05:27:57;6.37;;;3.10;;
18378;SDS011;27025;51.986;5.984;2022-10-16T05:30:23;4.77;;;3.07;;
18378;SDS011;27025;51.986;5.984;2022-10-16T05:32:50;3.23;;;2.77;;
18378;SDS011;27025;51.986;5.984;2022-10-16T05:35:16;5.10;;;2.90;;
18378;SDS011;27025;51.986;5.984;2022-10-16T05:37:43;5.97;;;3.20;;
18378;SDS011;27025;51.986;5.984;2022-10-16T05:40:09;4.10;;;3.03;;
18378;SDS011;27025;51.986;5.984;2022-10-16T05:42:35;8.07;;;3.10;;
18378;SDS011;27025;51.986;5.984;2022-10-16T05:45:02;5.77;;;3.43;;
18378;SDS011;27025;51.986;5.984;2022-10-16T05:47:28;7.57;;;3.53;;
18378;SDS011;27025;51.986;5.984;2022-10-16T05:49:54;6.17;;;2.97;;
18378;SDS011;27025;51.986;5.984;2022-10-16T05:52:20;4.93;;;3.67;;
18378;SDS011;27025;51.986;5.984;2022-10-16T05:54:46;4.00;;;3.60;;
18378;SDS011;27025;51.986;5.984;2022-10-16T05:57:13;5.13;;;3.40;;
18378;SDS011;27025;51.986;5.984;2022-10-16T05:59:38;7.27;;;3.57;;
18378;SDS011;27025;51.986;5.984;2022-10-16T06:02:05;6.70;;;3.47;;
18378;SDS011;27025;51.986;5.984;2022-10-16T06:04:31;7.90;;;3.37;;
18378;SDS011;27025;51.986;5.984;2022-10-16T06:07:03;5.57;;;3.53;;
18378;SDS011;27025;51.986;5.984;2022-10-16T06:09:29;5.93;;;3.37;;
18378;SDS011;27025;51.986;5.984;2022-10-16T06:11:55;5.20;;;3.77;;
18378;SDS011;27025;51.986;5.984;2022-10-16T06:14:21;6.83;;;3.33;;
18378;SDS011;27025;51.986;5.984;2022-10-16T06:16:47;6.57;;;3.67;;
18378;SDS011;27025;51.986;5.984;2022-10-16T06:19:13;4.13;;;3.40;;
18378;SDS011;27025;51.986;5.984;2022-10-16T06:21:41;4.87;;;3.80;;
18378;SDS011;27025;51.986;5.984;2022-10-16T06:24:07;6.10;;;3.70;;
18378;SDS011;27025;51.986;5.984;2022-10-16T06:26:33;4.03;;;3.50;;
18378;SDS011;27025;51.986;5.984;2022-10-16T06:29:00;6.67;;;3.80;;
18378;SDS011;27025;51.986;5.984;2022-10-16T06:31:26;4.87;;;3.70;;
18378;SDS011;27025;51.986;5.984;2022-10-16T06:33:55;6.33;;;3.57;;
18378;SDS011;27025;51.986;5.984;2022-10-16T06:36:22;6.57;;;3.70;;
18378;SDS011;27025;51.986;5.984;2022-10-16T06:38:48;7.27;;;3.40;;
18378;SDS011;27025;51.986;5.984;2022-10-16T06:41:15;4.67;;;3.30;;
18378;SDS011;27025;51.986;5.984;2022-10-16T06:43:42;4.93;;;3.20;;
18378;SDS011;27025;51.986;5.984;2022-10-16T06:46:10;5.67;;;3.50;;
18378;SDS011;27025;51.986;5.984;2022-10-16T06:48:36;4.77;;;3.30;;
18378;SDS011;27025;51.986;5.984;2022-10-16T06:53:30;4.90;;;3.57;;
18378;SDS011;27025;51.986;5.984;2022-10-16T06:55:56;5.13;;;3.30;;
18378;SDS011;27025;51.986;5.984;2022-10-16T06:58:22;4.90;;;3.47;;
18378;SDS011;27025;51.986;5.984;2022-10-16T07:00:49;6.50;;;3.70;;
18378;SDS011;27025;51.986;5.984;2022-10-16T07:03:20;6.80;;;3.30;;
18378;SDS011;27025;51.986;5.984;2022-10-16T07:05:46;6.17;;;3.07;;
18378;SDS011;27025;51.986;5.984;2022-10-16T07:08:12;6.20;;;3.30;;
18378;SDS011;27025;51.986;5.984;2022-10-16T07:10:41;4.87;;;3.20;;
18378;SDS011;27025;51.986;5.984;2022-10-16T07:13:07;5.73;;;3.13;;
18378;SDS011;27025;51.986;5.984;2022-10-16T07:15:33;5.50;;;3.33;;
18378;SDS011;27025;51.986;5.984;2022-10-16T07:18:02;4.63;;;3.30;;
18378;SDS011;27025;51.986;5.984;2022-10-16T07:20:28;4.80;;;3.33;;
18378;SDS011;27025;51.986;5.984;2022-10-16T07:22:57;6.10;;;3.10;;
18378;SDS011;27025;51.986;5.984;2022-10-16T07:25:23;4.73;;;3.17;;
18378;SDS011;27025;51.986;5.984;2022-10-16T07:27:49;6.47;;;3.40;;
18378;SDS011;27025;51.986;5.984;2022-10-16T07:30:15;5.57;;;3.70;;
18378;SDS011;27025;51.986;5.984;2022-10-16T07:32:41;7.03;;;3.50;;
18378;SDS011;27025;51.986;5.984;2022-10-16T07:35:07;6.63;;;3.50;;
18378;SDS011;27025;51.986;5.984;2022-10-16T07:37:33;7.25;;;3.72;;
18378;SDS011;27025;51.986;5.984;2022-10-16T07:39:59;6.50;;;3.50;;
18378;SDS011;27025;51.986;5.984;2022-10-16T07:42:26;6.90;;;3.53;;
18378;SDS011;27025;51.986;5.984;2022-10-16T07:44:53;4.10;;;3.33;;
18378;SDS011;27025;51.986;5.984;2022-10-16T07:47:19;7.03;;;3.77;;
18378;SDS011;27025;51.986;5.984;2022-10-16T07:49:45;3.80;;;3.40;;
18378;SDS011;27025;51.986;5.984;2022-10-16T07:52:11;6.57;;;3.50;;
18378;SDS011;27025;51.986;5.984;2022-10-16T07:54:37;5.13;;;3.17;;
18378;SDS011;27025;51.986;5.984;2022-10-16T07:57:03;5.13;;;3.50;;
18378;SDS011;27025;51.986;5.984;2022-10-16T07:59:29;7.80;;;3.67;;
18378;SDS011;27025;51.986;5.984;2022-10-16T08:01:55;6.77;;;3.50;;
18378;SDS011;27025;51.986;5.984;2022-10-16T08:04:21;5.50;;;3.33;;
18378;SDS011;27025;51.986;5.984;2022-10-16T08:06:47;7.90;;;3.63;;
18378;SDS011;27025;51.986;5.984;2022-10-16T08:09:14;9.30;;;3.53;;
18378;SDS011;27025;51.986;5.984;2022-10-16T08:11:40;4.97;;;3.10;;
18378;SDS011;27025;51.986;5.984;2022-10-16T08:14:06;6.13;;;3.20;;
18378;SDS011;27025;51.986;5.984;2022-10-16T08:16:32;6.47;;;3.10;;
18378;SDS011;27025;51.986;5.984;2022-10-16T08:18:58;7.60;;;3.30;;
18378;SDS011;27025;51.986;5.984;2022-10-16T08:21:24;6.73;;;3.00;;
18378;SDS011;27025;51.986;5.984;2022-10-16T08:23:50;5.03;;;2.60;;
18378;SDS011;27025;51.986;5.984;2022-10-16T08:26:16;9.17;;;3.33;;
18378;SDS011;27025;51.986;5.984;2022-10-16T08:28:44;7.13;;;2.90;;
18378;SDS011;27025;51.986;5.984;2022-10-16T08:33:36;7.37;;;2.83;;
18378;SDS011;27025;51.986;5.984;2022-10-16T08:36:03;4.73;;;2.67;;
18378;SDS011;27025;51.986;5.984;2022-10-16T08:38:29;6.10;;;2.80;;
18378;SDS011;27025;51.986;5.984;2022-10-16T08:44:00;5.63;;;3.13;;
18378;SDS011;27025;51.986;5.984;2022-10-16T08:49:01;6.20;;;2.83;;
18378;SDS011;27025;51.986;5.984;2022-10-16T08:51:32;7.43;;;2.80;;
18378;SDS011;27025;51.986;5.984;2022-10-16T08:53:59;6.47;;;2.90;;
18378;SDS011;27025;51.986;5.984;2022-10-16T08:56:27;5.07;;;2.90;;
18378;SDS011;27025;51.986;5.984;2022-10-16T08:58:53;7.60;;;2.67;;
18378;SDS011;27025;51.986;5.984;2022-10-16T09:01:20;7.33;;;2.50;;
18378;SDS011;27025;51.986;5.984;2022-10-16T09:08:48;3.33;;;2.20;;
18378;SDS011;27025;51.986;5.984;2022-10-16T09:14:04;6.50;;;2.60;;
18378;SDS011;27025;51.986;5.984;2022-10-16T09:19:38;9.40;;;2.67;;
18378;SDS011;27025;51.986;5.984;2022-10-16T09:22:12;3.60;;;2.30;;
18378;SDS011;27025;51.986;5.984;2022-10-16T09:24:39;5.90;;;2.03;;
18378;SDS011;27025;51.986;5.984;2022-10-16T09:27:08;8.03;;;2.27;;
18378;SDS011;27025;51.986;5.984;2022-10-16T09:29:35;5.77;;;2.10;;
18378;SDS011;27025;51.986;5.984;2022-10-16T09:32:22;5.13;;;2.27;;
18378;SDS011;27025;51.986;5.984;2022-10-16T09:34:49;10.37;;;2.27;;
18378;SDS011;27025;51.986;5.984;2022-10-16T09:37:20;7.77;;;2.47;;
18378;SDS011;27025;51.986;5.984;2022-10-16T09:39:48;6.73;;;2.50;;
18378;SDS011;27025;51.986;5.984;2022-10-16T09:42:29;8.23;;;2.60;;
18378;SDS011;27025;51.986;5.984;2022-10-16T09:44:56;6.10;;;2.50;;
18378;SDS011;27025;51.986;5.984;2022-10-16T09:47:23;7.47;;;2.40;;
18378;SDS011;27025;51.986;5.984;2022-10-16T09:49:57;6.97;;;2.50;;
18378;SDS011;27025;51.986;5.984;2022-10-16T09:52:27;7.30;;;2.70;;
18378;SDS011;27025;51.986;5.984;2022-10-16T09:54:53;7.22;;;2.40;;
18378;SDS011;27025;51.986;5.984;2022-10-16T09:57:20;7.67;;;2.57;;
18378;SDS011;27025;51.986;5.984;2022-10-16T09:59:53;8.25;;;2.72;;
18378;SDS011;27025;51.986;5.984;2022-10-16T10:02:27;9.87;;;2.80;;
18378;SDS011;27025;51.986;5.984;2022-10-16T10:04:55;8.40;;;2.47;;
18378;SDS011;27025;51.986;5.984;2022-10-16T10:07:30;10.07;;;2.67;;
18378;SDS011;27025;51.986;5.984;2022-10-16T10:10:00;7.47;;;2.47;;
18378;SDS011;27025;51.986;5.984;2022-10-16T10:12:27;9.25;;;2.63;;
18378;SDS011;27025;51.986;5.984;2022-10-16T10:14:57;10.35;;;2.70;;
18378;SDS011;27025;51.986;5.984;2022-10-16T10:17:24;6.80;;;2.63;;
18378;SDS011;27025;51.986;5.984;2022-10-16T10:19:54;9.13;;;2.70;;
18378;SDS011;27025;51.986;5.984;2022-10-16T10:30:13;6.93;;;2.40;;
18378;SDS011;27025;51.986;5.984;2022-10-16T10:35:39;10.52;;;2.70;;
18378;SDS011;27025;51.986;5.984;2022-10-16T10:38:26;9.05;;;2.80;;
18378;SDS011;27025;51.986;5.984;2022-10-16T10:41:00;10.40;;;2.80;;
18378;SDS011;27025;51.986;5.984;2022-10-16T10:46:00;10.40;;;2.90;;
18378;SDS011;27025;51.986;5.984;2022-10-16T10:51:16;8.82;;;2.88;;
18378;SDS011;27025;51.986;5.984;2022-10-16T10:56:34;9.02;;;2.78;;
18378;SDS011;27025;51.986;5.984;2022-10-16T10:59:08;10.37;;;2.70;;
18378;SDS011;27025;51.986;5.984;2022-10-16T11:06:33;12.77;;;3.00;;
18378;SDS011;27025;51.986;5.984;2022-10-16T11:14:38;9.90;;;2.90;;
18378;SDS011;27025;51.986;5.984;2022-10-16T11:16:51;10.90;;;2.55;;
18378;SDS011;27025;51.986;5.984;2022-10-16T11:19:32;10.87;;;2.70;;
18378;SDS011;27025;51.986;5.984;2022-10-16T11:22:01;9.20;;;2.67;;
18378;SDS011;27025;51.986;5.984;2022-10-16T11:24:34;10.40;;;2.90;;
18378;SDS011;27025;51.986;5.984;2022-10-16T11:27:02;10.10;;;2.85;;
18378;SDS011;27025;51.986;5.984;2022-10-16T11:29:30;11.00;;;2.92;;
18378;SDS011;27025;51.986;5.984;2022-10-16T11:31:59;11.60;;;2.85;;
18378;SDS011;27025;51.986;5.984;2022-10-16T11:37:08;11.60;;;2.58;;
18378;SDS011;27025;51.986;5.984;2022-10-16T11:39:35;12.70;;;3.00;;
18378;SDS011;27025;51.986;5.984;2022-10-16T11:42:07;12.40;;;2.97;;
18378;SDS011;27025;51.986;5.984;2022-10-16T11:49:38;11.32;;;2.95;;
18378;SDS011;27025;51.986;5.984;2022-10-16T11:52:19;12.15;;;3.20;;
18378;SDS011;27025;51.986;5.984;2022-10-16T11:54:54;10.38;;;2.80;;
18378;SDS011;27025;51.986;5.984;2022-10-16T11:57:29;10.55;;;3.08;;
18378;SDS011;27025;51.986;5.984;2022-10-16T11:59:58;10.10;;;2.70;;
18378;SDS011;27025;51.986;5.984;2022-10-16T12:07:43;10.23;;;2.87;;
18378;SDS011;27025;51.986;5.984;2022-10-16T12:10:11;10.98;;;3.05;;
18378;SDS011;27025;51.986;5.984;2022-10-16T12:12:44;10.07;;;3.00;;
18378;SDS011;27025;51.986;5.984;2022-10-16T12:15:27;11.77;;;2.90;;
18378;SDS011;27025;51.986;5.984;2022-10-16T12:17:54;11.40;;;2.95;;
18378;SDS011;27025;51.986;5.984;2022-10-16T12:20:21;10.38;;;2.90;;
18378;SDS011;27025;51.986;5.984;2022-10-16T12:25:21;11.23;;;3.00;;
18378;SDS011;27025;51.986;5.984;2022-10-16T12:30:53;13.75;;;3.20;;
18378;SDS011;27025;51.986;5.984;2022-10-16T12:33:29;10.70;;;3.03;;
18378;SDS011;27025;51.986;5.984;2022-10-16T12:35:57;11.47;;;3.10;;
18378;SDS011;27025;51.986;5.984;2022-10-16T12:38:36;11.05;;;2.72;;
18378;SDS011;27025;51.986;5.984;2022-10-16T12:41:04;10.27;;;2.87;;
18378;SDS011;27025;51.986;5.984;2022-10-16T12:43:51;10.63;;;2.75;;
18378;SDS011;27025;51.986;5.984;2022-10-16T12:48:43;10.67;;;2.80;;
18378;SDS011;27025;51.986;5.984;2022-10-16T12:53:36;11.48;;;2.50;;
18378;SDS011;27025;51.986;5.984;2022-10-16T12:56:04;9.73;;;2.72;;
18378;SDS011;27025;51.986;5.984;2022-10-16T13:01:06;7.73;;;2.30;;
18378;SDS011;27025;51.986;5.984;2022-10-16T13:09:14;11.70;;;2.97;;
18378;SDS011;27025;51.986;5.984;2022-10-16T13:11:48;8.50;;;2.80;;
18378;SDS011;27025;51.986;5.984;2022-10-16T13:14:34;11.02;;;2.80;;
18378;SDS011;27025;51.986;5.984;2022-10-16T13:17:18;10.50;;;2.72;;
18378;SDS011;27025;51.986;5.984;2022-10-16T13:32:39;9.25;;;2.80;;
18378;SDS011;27025;51.986;5.984;2022-10-16T13:35:18;11.67;;;2.90;;
18378;SDS011;27025;51.986;5.984;2022-10-16T13:37:45;12.35;;;2.70;;
18378;SDS011;27025;51.986;5.984;2022-10-16T13:40:21;12.35;;;3.17;;
18378;SDS011;27025;51.986;5.984;2022-10-16T13:42:48;11.95;;;2.78;;
18378;SDS011;27025;51.986;5.984;2022-10-16T13:45:19;11.73;;;2.95;;
18378;SDS011;27025;51.986;5.984;2022-10-16T13:47:45;11.80;;;2.83;;
18378;SDS011;27025;51.986;5.984;2022-10-16T13:50:12;10.35;;;2.58;;
18378;SDS011;27025;51.986;5.984;2022-10-16T13:52:38;11.83;;;2.70;;
18378;SDS011;27025;51.986;5.984;2022-10-16T13:55:10;9.07;;;2.58;;
18378;SDS011;27025;51.986;5.984;2022-10-16T13:57:36;8.27;;;2.45;;
18378;SDS011;27025;51.986;5.984;2022-10-16T14:00:02;9.98;;;2.60;;
18378;SDS011;27025;51.986;5.984;2022-10-16T14:02:35;11.13;;;2.88;;
18378;SDS011;27025;51.986;5.984;2022-10-16T14:05:03;11.73;;;2.95;;
18378;SDS011;27025;51.986;5.984;2022-10-16T14:07:31;12.37;;;2.70;;
18378;SDS011;27025;51.986;5.984;2022-10-16T14:10:00;12.57;;;2.75;;
18378;SDS011;27025;51.986;5.984;2022-10-16T14:12:26;10.27;;;2.60;;
18378;SDS011;27025;51.986;5.984;2022-10-16T14:14:53;10.27;;;2.67;;
18378;SDS011;27025;51.986;5.984;2022-10-16T14:17:22;11.25;;;2.90;;
18378;SDS011;27025;51.986;5.984;2022-10-16T14:19:49;11.25;;;2.80;;
18378;SDS011;27025;51.986;5.984;2022-10-16T14:22:21;10.07;;;2.90;;
18378;SDS011;27025;51.986;5.984;2022-10-16T14:24:48;10.27;;;2.83;;
18378;SDS011;27025;51.986;5.984;2022-10-16T14:27:23;10.85;;;2.90;;
18378;SDS011;27025;51.986;5.984;2022-10-16T14:29:50;10.15;;;2.67;;
18378;SDS011;27025;51.986;5.984;2022-10-16T14:32:26;10.40;;;3.03;;
18378;SDS011;27025;51.986;5.984;2022-10-16T14:34:53;10.00;;;2.90;;
18378;SDS011;27025;51.986;5.984;2022-10-16T14:39:48;11.07;;;2.55;;
18378;SDS011;27025;51.986;5.984;2022-10-16T14:42:16;10.17;;;2.80;;
18378;SDS011;27025;51.986;5.984;2022-10-16T14:44:44;10.95;;;3.03;;
18378;SDS011;27025;51.986;5.984;2022-10-16T14:47:12;10.23;;;2.80;;
18378;SDS011;27025;51.986;5.984;2022-10-16T14:49:39;10.48;;;2.88;;
18378;SDS011;27025;51.986;5.984;2022-10-16T14:52:10;10.43;;;2.80;;
18378;SDS011;27025;51.986;5.984;2022-10-16T14:54:36;10.35;;;2.95;;
18378;SDS011;27025;51.986;5.984;2022-10-16T14:57:03;9.95;;;3.05;;
18378;SDS011;27025;51.986;5.984;2022-10-16T15:01:56;10.65;;;3.28;;
18378;SDS011;27025;51.986;5.984;2022-10-16T15:04:22;9.80;;;2.80;;
18378;SDS011;27025;51.986;5.984;2022-10-16T15:06:48;11.63;;;3.05;;
18378;SDS011;27025;51.986;5.984;2022-10-16T15:09:14;12.07;;;2.95;;
18378;SDS011;27025;51.986;5.984;2022-10-16T15:11:40;9.10;;;2.63;;
18378;SDS011;27025;51.986;5.984;2022-10-16T15:14:09;12.45;;;3.08;;
18378;SDS011;27025;51.986;5.984;2022-10-16T15:16:37;13.25;;;3.17;;
18378;SDS011;27025;51.986;5.984;2022-10-16T15:19:03;11.32;;;2.97;;
18378;SDS011;27025;51.986;5.984;2022-10-16T15:21:30;8.97;;;3.03;;
18378;SDS011;27025;51.986;5.984;2022-10-16T15:23:57;12.95;;;3.38;;
18378;SDS011;27025;51.986;5.984;2022-10-16T15:26:24;9.77;;;3.13;;
18378;SDS011;27025;51.986;5.984;2022-10-16T15:28:50;12.88;;;4.68;;
18378;SDS011;27025;51.986;5.984;2022-10-16T15:31:16;14.53;;;3.87;;
18378;SDS011;27025;51.986;5.984;2022-10-16T15:33:42;10.93;;;4.90;;
18378;SDS011;27025;51.986;5.984;2022-10-16T15:36:08;10.40;;;3.67;;
18378;SDS011;27025;51.986;5.984;2022-10-16T15:38:34;13.00;;;3.70;;
18378;SDS011;27025;51.986;5.984;2022-10-16T15:41:00;12.23;;;3.75;;
18378;SDS011;27025;51.986;5.984;2022-10-16T15:43:26;10.85;;;3.55;;
18378;SDS011;27025;51.986;5.984;2022-10-16T15:46:01;11.00;;;3.53;;
18378;SDS011;27025;51.986;5.984;2022-10-16T15:48:27;10.27;;;3.10;;
18378;SDS011;27025;51.986;5.984;2022-10-16T15:50:53;13.52;;;3.60;;
18378;SDS011;27025;51.986;5.984;2022-10-16T15:53:19;7.95;;;3.20;;
18378;SDS011;27025;51.986;5.984;2022-10-16T15:55:45;8.38;;;2.95;;
18378;SDS011;27025;51.986;5.984;2022-10-16T15:58:11;9.10;;;3.00;;
18378;SDS011;27025;51.986;5.984;2022-10-16T16:00:37;11.43;;;3.23;;
18378;SDS011;27025;51.986;5.984;2022-10-16T16:03:03;11.57;;;3.50;;
18378;SDS011;27025;51.986;5.984;2022-10-16T16:05:30;10.35;;;3.40;;
18378;SDS011;27025;51.986;5.984;2022-10-16T16:07:56;9.70;;;3.72;;
18378;SDS011;27025;51.986;5.984;2022-10-16T16:10:22;11.38;;;3.75;;
18378;SDS011;27025;51.986;5.984;2022-10-16T16:12:49;9.13;;;3.20;;
18378;SDS011;27025;51.986;5.984;2022-10-16T16:15:21;12.32;;;3.60;;
18378;SDS011;27025;51.986;5.984;2022-10-16T16:17:47;12.02;;;4.30;;
18378;SDS011;27025;51.986;5.984;2022-10-16T16:20:13;10.57;;;3.55;;
18378;SDS011;27025;51.986;5.984;2022-10-16T16:22:40;13.00;;;3.83;;
18378;SDS011;27025;51.986;5.984;2022-10-16T16:25:06;12.95;;;4.68;;
18378;SDS011;27025;51.986;5.984;2022-10-16T16:27:32;14.15;;;4.13;;
18378;SDS011;27025;51.986;5.984;2022-10-16T16:29:59;10.82;;;3.78;;
18378;SDS011;27025;51.986;5.984;2022-10-16T16:32:25;14.47;;;4.60;;
18378;SDS011;27025;51.986;5.984;2022-10-16T16:34:51;14.73;;;4.50;;
18378;SDS011;27025;51.986;5.984;2022-10-16T16:37:17;10.30;;;3.43;;
18378;SDS011;27025;51.986;5.984;2022-10-16T16:39:43;13.00;;;3.83;;
18378;SDS011;27025;51.986;5.984;2022-10-16T16:42:09;13.57;;;3.77;;
18378;SDS011;27025;51.986;5.984;2022-10-16T16:44:35;13.18;;;4.20;;
18378;SDS011;27025;51.986;5.984;2022-10-16T16:47:02;9.07;;;3.10;;
18378;SDS011;27025;51.986;5.984;2022-10-16T16:49:28;9.75;;;3.55;;
18378;SDS011;27025;51.986;5.984;2022-10-16T17:07:30;12.70;;;6.73;;
18378;SDS011;27025;51.986;5.984;2022-10-16T17:09:59;13.00;;;7.43;;